sensor_id;sensor_type;location;lat;lon;timestamp;P1;durP1;ratioP1;P2;durP2;ratioP2
62798;SDS011;48842;51.046;13.796;2022-09-03T00:01:28;5.23;;;2.70;;
62798;SDS011;48842;51.046;13.796;2022-09-03T00:04:08;3.50;;;3.20;;
62798;SDS011;48842;51.046;13.796;2022-09-03T00:06:45;4.03;;;3.20;;
62798;SDS011;48842;51.046;13.796;2022-09-03T00:09:18;2.70;;;2.40;;
62798;SDS011;48842;51.046;13.796;2022-09-03T00:11:54;3.23;;;3.03;;
62798;SDS011;48842;51.046;13.796;2022-09-03T00:14:33;2.80;;;2.60;;
62798;SDS011;48842;51.046;13.796;2022-09-03T00:17:04;3.47;;;3.20;;
62798;SDS011;48842;51.046;13.796;2022-09-03T00:19:36;3.70;;;3.20;;
62798;SDS011;48842;51.046;13.796;2022-09-03T00:22:09;3.43;;;2.40;;
62798;SDS011;48842;51.046;13.796;2022-09-03T00:24:41;7.50;;;2.83;;
62798;SDS011;48842;51.046;13.796;2022-09-03T00:27:12;4.47;;;2.93;;
62798;SDS011;48842;51.046;13.796;2022-09-03T00:29:51;3.50;;;2.67;;
62798;SDS011;48842;51.046;13.796;2022-09-03T00:32:37;5.33;;;3.10;;
62798;SDS011;48842;51.046;13.796;2022-09-03T00:35:08;5.37;;;3.00;;
62798;SDS011;48842;51.046;13.796;2022-09-03T00:37:37;3.63;;;2.87;;
62798;SDS011;48842;51.046;13.796;2022-09-03T00:40:03;5.07;;;3.37;;
62798;SDS011;48842;51.046;13.796;2022-09-03T00:42:40;3.27;;;3.07;;
62798;SDS011;48842;51.046;13.796;2022-09-03T00:48:01;4.60;;;3.60;;
62798;SDS011;48842;51.046;13.796;2022-09-03T00:50:57;4.40;;;3.90;;
62798;SDS011;48842;51.046;13.796;2022-09-03T00:59:03;5.20;;;3.70;;
62798;SDS011;48842;51.046;13.796;2022-09-03T01:10:15;4.60;;;3.33;;
62798;SDS011;48842;51.046;13.796;2022-09-03T01:12:53;3.90;;;3.50;;
62798;SDS011;48842;51.046;13.796;2022-09-03T01:20:45;4.87;;;2.87;;
62798;SDS011;48842;51.046;13.796;2022-09-03T01:23:42;8.63;;;2.83;;
62798;SDS011;48842;51.046;13.796;2022-09-03T01:26:26;2.60;;;2.43;;
62798;SDS011;48842;51.046;13.796;2022-09-03T01:32:19;5.17;;;2.67;;
62798;SDS011;48842;51.046;13.796;2022-09-03T01:37:54;8.77;;;2.60;;
62798;SDS011;48842;51.046;13.796;2022-09-03T01:40:34;2.90;;;2.23;;
62798;SDS011;48842;51.046;13.796;2022-09-03T01:43:34;3.70;;;2.10;;
62798;SDS011;48842;51.046;13.796;2022-09-03T01:46:12;2.50;;;2.30;;
62798;SDS011;48842;51.046;13.796;2022-09-03T01:48:58;2.20;;;2.00;;
62798;SDS011;48842;51.046;13.796;2022-09-03T01:51:35;7.53;;;2.10;;
62798;SDS011;48842;51.046;13.796;2022-09-03T01:54:23;5.67;;;2.57;;
62798;SDS011;48842;51.046;13.796;2022-09-03T02:02:37;5.40;;;2.37;;
62798;SDS011;48842;51.046;13.796;2022-09-03T02:05:07;1.80;;;1.70;;
62798;SDS011;48842;51.046;13.796;2022-09-03T02:07:39;2.60;;;2.03;;
62798;SDS011;48842;51.046;13.796;2022-09-03T02:10:08;2.00;;;1.37;;
62798;SDS011;48842;51.046;13.796;2022-09-03T02:12:37;1.40;;;1.40;;
62798;SDS011;48842;51.046;13.796;2022-09-03T02:15:06;2.00;;;1.90;;
62798;SDS011;48842;51.046;13.796;2022-09-03T02:17:36;1.90;;;1.80;;
62798;SDS011;48842;51.046;13.796;2022-09-03T02:20:03;1.63;;;1.53;;
62798;SDS011;48842;51.046;13.796;2022-09-03T02:22:32;2.63;;;1.90;;
62798;SDS011;48842;51.046;13.796;2022-09-03T02:24:58;2.13;;;2.03;;
62798;SDS011;48842;51.046;13.796;2022-09-03T02:27:24;1.77;;;1.60;;
62798;SDS011;48842;51.046;13.796;2022-09-03T02:29:50;2.20;;;2.10;;
62798;SDS011;48842;51.046;13.796;2022-09-03T02:32:15;1.93;;;1.80;;
62798;SDS011;48842;51.046;13.796;2022-09-03T02:34:41;2.63;;;1.60;;
62798;SDS011;48842;51.046;13.796;2022-09-03T02:37:14;4.20;;;2.10;;
62798;SDS011;48842;51.046;13.796;2022-09-03T02:39:40;3.40;;;1.80;;
62798;SDS011;48842;51.046;13.796;2022-09-03T02:42:05;3.70;;;2.07;;
62798;SDS011;48842;51.046;13.796;2022-09-03T02:44:31;3.57;;;1.83;;
62798;SDS011;48842;51.046;13.796;2022-09-03T02:47:02;2.70;;;2.10;;
62798;SDS011;48842;51.046;13.796;2022-09-03T02:49:29;2.77;;;1.83;;
62798;SDS011;48842;51.046;13.796;2022-09-03T02:51:58;1.80;;;1.70;;
62798;SDS011;48842;51.046;13.796;2022-09-03T02:54:25;1.80;;;1.70;;
62798;SDS011;48842;51.046;13.796;2022-09-03T02:56:51;1.80;;;1.70;;
62798;SDS011;48842;51.046;13.796;2022-09-03T02:59:17;2.33;;;2.17;;
62798;SDS011;48842;51.046;13.796;2022-09-03T03:01:42;1.90;;;1.80;;
62798;SDS011;48842;51.046;13.796;2022-09-03T03:04:07;2.57;;;1.80;;
62798;SDS011;48842;51.046;13.796;2022-09-03T03:06:32;5.00;;;2.00;;
62798;SDS011;48842;51.046;13.796;2022-09-03T03:08:58;3.30;;;2.13;;
62798;SDS011;48842;51.046;13.796;2022-09-03T03:11:24;2.20;;;2.00;;
62798;SDS011;48842;51.046;13.796;2022-09-03T03:13:50;2.30;;;2.10;;
62798;SDS011;48842;51.046;13.796;2022-09-03T03:16:16;2.23;;;1.90;;
62798;SDS011;48842;51.046;13.796;2022-09-03T03:18:42;2.10;;;2.00;;
62798;SDS011;48842;51.046;13.796;2022-09-03T03:21:10;6.70;;;2.80;;
62798;SDS011;48842;51.046;13.796;2022-09-03T03:23:37;5.43;;;2.30;;
62798;SDS011;48842;51.046;13.796;2022-09-03T03:26:04;2.60;;;2.40;;
62798;SDS011;48842;51.046;13.796;2022-09-03T03:28:32;5.53;;;2.20;;
62798;SDS011;48842;51.046;13.796;2022-09-03T03:31:03;6.67;;;2.30;;
62798;SDS011;48842;51.046;13.796;2022-09-03T03:33:37;3.63;;;2.13;;
62798;SDS011;48842;51.046;13.796;2022-09-03T03:36:04;2.37;;;2.17;;
62798;SDS011;48842;51.046;13.796;2022-09-03T03:38:30;2.27;;;2.17;;
62798;SDS011;48842;51.046;13.796;2022-09-03T03:40:56;2.27;;;2.07;;
62798;SDS011;48842;51.046;13.796;2022-09-03T03:43:21;2.07;;;1.90;;
62798;SDS011;48842;51.046;13.796;2022-09-03T03:46:04;3.10;;;2.40;;
62798;SDS011;48842;51.046;13.796;2022-09-03T03:48:30;2.33;;;2.13;;
62798;SDS011;48842;51.046;13.796;2022-09-03T03:51:00;2.00;;;1.90;;
62798;SDS011;48842;51.046;13.796;2022-09-03T03:53:28;2.80;;;1.87;;
62798;SDS011;48842;51.046;13.796;2022-09-03T03:55:54;3.27;;;2.20;;
62798;SDS011;48842;51.046;13.796;2022-09-03T03:58:21;2.53;;;2.17;;
62798;SDS011;48842;51.046;13.796;2022-09-03T04:00:46;15.93;;;2.50;;
62798;SDS011;48842;51.046;13.796;2022-09-03T04:03:13;2.77;;;2.37;;
62798;SDS011;48842;51.046;13.796;2022-09-03T04:05:38;2.60;;;2.40;;
62798;SDS011;48842;51.046;13.796;2022-09-03T04:08:03;4.63;;;2.67;;
62798;SDS011;48842;51.046;13.796;2022-09-03T04:10:29;2.30;;;2.10;;
62798;SDS011;48842;51.046;13.796;2022-09-03T04:12:54;3.37;;;2.10;;
62798;SDS011;48842;51.046;13.796;2022-09-03T04:15:20;3.67;;;2.33;;
62798;SDS011;48842;51.046;13.796;2022-09-03T04:17:45;2.20;;;2.10;;
62798;SDS011;48842;51.046;13.796;2022-09-03T04:20:10;2.60;;;2.23;;
62798;SDS011;48842;51.046;13.796;2022-09-03T04:22:35;2.47;;;2.37;;
62798;SDS011;48842;51.046;13.796;2022-09-03T04:25:01;2.47;;;2.23;;
62798;SDS011;48842;51.046;13.796;2022-09-03T04:27:26;3.63;;;2.20;;
62798;SDS011;48842;51.046;13.796;2022-09-03T04:29:51;4.93;;;2.20;;
62798;SDS011;48842;51.046;13.796;2022-09-03T04:32:16;2.20;;;2.10;;
62798;SDS011;48842;51.046;13.796;2022-09-03T04:35:00;3.27;;;2.47;;
62798;SDS011;48842;51.046;13.796;2022-09-03T04:37:26;2.80;;;2.53;;
62798;SDS011;48842;51.046;13.796;2022-09-03T04:39:51;2.63;;;2.30;;
62798;SDS011;48842;51.046;13.796;2022-09-03T04:42:18;2.10;;;2.00;;
62798;SDS011;48842;51.046;13.796;2022-09-03T04:44:43;2.83;;;2.63;;
62798;SDS011;48842;51.046;13.796;2022-09-03T04:47:08;5.20;;;2.70;;
62798;SDS011;48842;51.046;13.796;2022-09-03T04:49:33;3.37;;;2.13;;
62798;SDS011;48842;51.046;13.796;2022-09-03T04:51:59;2.60;;;2.40;;
62798;SDS011;48842;51.046;13.796;2022-09-03T04:54:24;3.90;;;2.07;;
62798;SDS011;48842;51.046;13.796;2022-09-03T04:56:49;3.53;;;2.80;;
62798;SDS011;48842;51.046;13.796;2022-09-03T04:59:14;8.83;;;2.30;;
62798;SDS011;48842;51.046;13.796;2022-09-03T05:01:41;2.77;;;2.60;;
62798;SDS011;48842;51.046;13.796;2022-09-03T05:04:07;5.93;;;2.20;;
62798;SDS011;48842;51.046;13.796;2022-09-03T05:06:33;2.43;;;2.23;;
62798;SDS011;48842;51.046;13.796;2022-09-03T05:09:00;4.70;;;2.37;;
62798;SDS011;48842;51.046;13.796;2022-09-03T05:11:25;3.57;;;2.50;;
62798;SDS011;48842;51.046;13.796;2022-09-03T05:13:52;5.10;;;2.63;;
62798;SDS011;48842;51.046;13.796;2022-09-03T05:16:19;2.73;;;2.43;;
62798;SDS011;48842;51.046;13.796;2022-09-03T05:18:46;4.60;;;2.80;;
62798;SDS011;48842;51.046;13.796;2022-09-03T05:21:12;2.43;;;2.10;;
62798;SDS011;48842;51.046;13.796;2022-09-03T05:23:41;2.20;;;2.00;;
62798;SDS011;48842;51.046;13.796;2022-09-03T05:26:08;2.30;;;2.20;;
62798;SDS011;48842;51.046;13.796;2022-09-03T05:28:36;1.80;;;1.70;;
62798;SDS011;48842;51.046;13.796;2022-09-03T05:31:04;2.20;;;2.03;;
62798;SDS011;48842;51.046;13.796;2022-09-03T05:33:35;2.77;;;1.90;;
62798;SDS011;48842;51.046;13.796;2022-09-03T05:36:02;2.80;;;2.60;;
62798;SDS011;48842;51.046;13.796;2022-09-03T05:38:29;3.50;;;2.40;;
62798;SDS011;48842;51.046;13.796;2022-09-03T05:40:58;3.30;;;2.17;;
62798;SDS011;48842;51.046;13.796;2022-09-03T05:43:25;3.20;;;2.87;;
62798;SDS011;48842;51.046;13.796;2022-09-03T05:45:51;2.17;;;2.07;;
62798;SDS011;48842;51.046;13.796;2022-09-03T05:48:21;3.10;;;1.63;;
62798;SDS011;48842;51.046;13.796;2022-09-03T05:50:46;4.73;;;2.27;;
62798;SDS011;48842;51.046;13.796;2022-09-03T05:53:12;2.83;;;2.10;;
62798;SDS011;48842;51.046;13.796;2022-09-03T05:55:38;2.30;;;2.20;;
62798;SDS011;48842;51.046;13.796;2022-09-03T05:58:03;6.73;;;2.50;;
62798;SDS011;48842;51.046;13.796;2022-09-03T06:00:28;3.03;;;2.73;;
62798;SDS011;48842;51.046;13.796;2022-09-03T06:02:54;10.93;;;2.50;;
62798;SDS011;48842;51.046;13.796;2022-09-03T06:05:19;2.80;;;2.60;;
62798;SDS011;48842;51.046;13.796;2022-09-03T06:07:45;3.47;;;2.63;;
62798;SDS011;48842;51.046;13.796;2022-09-03T06:10:13;2.70;;;2.50;;
62798;SDS011;48842;51.046;13.796;2022-09-03T06:12:40;2.70;;;2.30;;
62798;SDS011;48842;51.046;13.796;2022-09-03T06:15:06;2.27;;;2.13;;
62798;SDS011;48842;51.046;13.796;2022-09-03T06:17:32;5.70;;;1.87;;
62798;SDS011;48842;51.046;13.796;2022-09-03T06:19:57;2.60;;;2.07;;
62798;SDS011;48842;51.046;13.796;2022-09-03T06:22:22;3.83;;;2.13;;
62798;SDS011;48842;51.046;13.796;2022-09-03T06:24:49;6.17;;;2.60;;
62798;SDS011;48842;51.046;13.796;2022-09-03T06:27:14;4.30;;;2.13;;
62798;SDS011;48842;51.046;13.796;2022-09-03T06:29:39;5.20;;;2.20;;
62798;SDS011;48842;51.046;13.796;2022-09-03T06:32:05;9.00;;;2.07;;
62798;SDS011;48842;51.046;13.796;2022-09-03T06:34:30;6.00;;;1.97;;
62798;SDS011;48842;51.046;13.796;2022-09-03T06:36:56;2.17;;;2.00;;
62798;SDS011;48842;51.046;13.796;2022-09-03T06:39:21;3.07;;;1.93;;
62798;SDS011;48842;51.046;13.796;2022-09-03T06:41:47;2.83;;;2.30;;
62798;SDS011;48842;51.046;13.796;2022-09-03T06:44:15;2.37;;;2.17;;
62798;SDS011;48842;51.046;13.796;2022-09-03T06:46:41;2.90;;;1.70;;
62798;SDS011;48842;51.046;13.796;2022-09-03T06:49:06;2.33;;;2.20;;
62798;SDS011;48842;51.046;13.796;2022-09-03T06:51:32;2.30;;;2.10;;
62798;SDS011;48842;51.046;13.796;2022-09-03T06:54:02;1.90;;;1.80;;
62798;SDS011;48842;51.046;13.796;2022-09-03T06:56:30;2.53;;;2.33;;
62798;SDS011;48842;51.046;13.796;2022-09-03T06:58:58;2.13;;;1.93;;
62798;SDS011;48842;51.046;13.796;2022-09-03T07:01:28;2.63;;;2.43;;
62798;SDS011;48842;51.046;13.796;2022-09-03T07:03:59;1.87;;;1.70;;
62798;SDS011;48842;51.046;13.796;2022-09-03T07:06:27;2.20;;;1.70;;
62798;SDS011;48842;51.046;13.796;2022-09-03T07:08:53;4.73;;;1.83;;
62798;SDS011;48842;51.046;13.796;2022-09-03T07:11:22;2.33;;;2.13;;
62798;SDS011;48842;51.046;13.796;2022-09-03T07:13:50;2.83;;;1.90;;
62798;SDS011;48842;51.046;13.796;2022-09-03T07:16:17;5.00;;;1.87;;
62798;SDS011;48842;51.046;13.796;2022-09-03T07:18:47;2.07;;;1.70;;
62798;SDS011;48842;51.046;13.796;2022-09-03T07:21:14;2.57;;;1.83;;
62798;SDS011;48842;51.046;13.796;2022-09-03T07:23:41;3.77;;;1.60;;
62798;SDS011;48842;51.046;13.796;2022-09-03T07:26:10;1.90;;;1.70;;
62798;SDS011;48842;51.046;13.796;2022-09-03T07:28:38;1.90;;;1.80;;
62798;SDS011;48842;51.046;13.796;2022-09-03T07:31:06;2.53;;;2.20;;
62798;SDS011;48842;51.046;13.796;2022-09-03T07:33:35;1.77;;;1.67;;
62798;SDS011;48842;51.046;13.796;2022-09-03T07:36:02;4.90;;;1.93;;
62798;SDS011;48842;51.046;13.796;2022-09-03T07:38:30;2.10;;;1.73;;
62798;SDS011;48842;51.046;13.796;2022-09-03T07:40:56;3.73;;;1.83;;
62798;SDS011;48842;51.046;13.796;2022-09-03T07:43:23;5.70;;;1.63;;
62798;SDS011;48842;51.046;13.796;2022-09-03T07:45:49;1.73;;;1.60;;
62798;SDS011;48842;51.046;13.796;2022-09-03T07:48:15;3.20;;;1.50;;
62798;SDS011;48842;51.046;13.796;2022-09-03T07:50:41;1.97;;;1.80;;
62798;SDS011;48842;51.046;13.796;2022-09-03T07:53:07;3.50;;;1.87;;
62798;SDS011;48842;51.046;13.796;2022-09-03T07:55:32;2.03;;;1.90;;
62798;SDS011;48842;51.046;13.796;2022-09-03T07:57:57;3.77;;;1.90;;
62798;SDS011;48842;51.046;13.796;2022-09-03T08:00:23;4.73;;;2.20;;
62798;SDS011;48842;51.046;13.796;2022-09-03T08:02:50;1.70;;;1.60;;
62798;SDS011;48842;51.046;13.796;2022-09-03T08:05:16;10.53;;;1.73;;
62798;SDS011;48842;51.046;13.796;2022-09-03T08:07:44;5.27;;;1.80;;
62798;SDS011;48842;51.046;13.796;2022-09-03T08:10:09;2.33;;;1.80;;
62798;SDS011;48842;51.046;13.796;2022-09-03T08:12:34;3.87;;;1.90;;
62798;SDS011;48842;51.046;13.796;2022-09-03T08:15:00;2.10;;;1.87;;
62798;SDS011;48842;51.046;13.796;2022-09-03T08:17:25;1.50;;;1.40;;
62798;SDS011;48842;51.046;13.796;2022-09-03T08:19:50;6.40;;;2.07;;
62798;SDS011;48842;51.046;13.796;2022-09-03T08:22:15;2.57;;;2.20;;
62798;SDS011;48842;51.046;13.796;2022-09-03T08:24:41;10.90;;;1.70;;
62798;SDS011;48842;51.046;13.796;2022-09-03T08:27:06;3.93;;;1.70;;
62798;SDS011;48842;51.046;13.796;2022-09-03T08:29:32;4.07;;;1.80;;
62798;SDS011;48842;51.046;13.796;2022-09-03T08:31:57;4.03;;;1.83;;
62798;SDS011;48842;51.046;13.796;2022-09-03T08:34:22;4.37;;;2.30;;
62798;SDS011;48842;51.046;13.796;2022-09-03T08:36:48;3.80;;;1.60;;
62798;SDS011;48842;51.046;13.796;2022-09-03T08:39:14;5.40;;;2.00;;
62798;SDS011;48842;51.046;13.796;2022-09-03T08:41:44;4.43;;;2.07;;
62798;SDS011;48842;51.046;13.796;2022-09-03T08:55:01;2.47;;;1.87;;
62798;SDS011;48842;51.046;13.796;2022-09-03T08:57:28;5.03;;;1.80;;
62798;SDS011;48842;51.046;13.796;2022-09-03T09:00:00;6.93;;;2.43;;
62798;SDS011;48842;51.046;13.796;2022-09-03T09:02:43;3.40;;;1.87;;
62798;SDS011;48842;51.046;13.796;2022-09-03T09:05:19;2.07;;;1.80;;
62798;SDS011;48842;51.046;13.796;2022-09-03T09:07:59;2.83;;;1.80;;
62798;SDS011;48842;51.046;13.796;2022-09-03T09:10:40;2.70;;;2.17;;
62798;SDS011;48842;51.046;13.796;2022-09-03T09:15:56;3.80;;;1.83;;
62798;SDS011;48842;51.046;13.796;2022-09-03T09:21:16;5.90;;;1.60;;
62798;SDS011;48842;51.046;13.796;2022-09-03T09:23:48;3.67;;;1.93;;
62798;SDS011;48842;51.046;13.796;2022-09-03T09:26:15;4.17;;;2.40;;
62798;SDS011;48842;51.046;13.796;2022-09-03T09:28:44;3.93;;;2.03;;
62798;SDS011;48842;51.046;13.796;2022-09-03T09:31:11;6.73;;;1.73;;
62798;SDS011;48842;51.046;13.796;2022-09-03T09:33:42;4.03;;;1.83;;
62798;SDS011;48842;51.046;13.796;2022-09-03T09:36:09;1.93;;;1.63;;
62798;SDS011;48842;51.046;13.796;2022-09-03T09:38:39;9.03;;;1.70;;
62798;SDS011;48842;51.046;13.796;2022-09-03T09:41:09;4.40;;;1.80;;
62798;SDS011;48842;51.046;13.796;2022-09-03T09:43:43;2.00;;;1.80;;
62798;SDS011;48842;51.046;13.796;2022-09-03T09:46:13;4.00;;;2.07;;
62798;SDS011;48842;51.046;13.796;2022-09-03T09:48:46;4.23;;;2.03;;
62798;SDS011;48842;51.046;13.796;2022-09-03T09:51:18;1.83;;;1.73;;
62798;SDS011;48842;51.046;13.796;2022-09-03T09:53:46;4.30;;;1.90;;
62798;SDS011;48842;51.046;13.796;2022-09-03T09:56:22;4.63;;;2.43;;
62798;SDS011;48842;51.046;13.796;2022-09-03T09:58:48;3.10;;;1.53;;
62798;SDS011;48842;51.046;13.796;2022-09-03T10:01:25;5.03;;;2.10;;
62798;SDS011;48842;51.046;13.796;2022-09-03T10:03:55;2.37;;;2.00;;
62798;SDS011;48842;51.046;13.796;2022-09-03T10:06:23;1.87;;;1.67;;
62798;SDS011;48842;51.046;13.796;2022-09-03T10:09:13;2.50;;;1.70;;
62798;SDS011;48842;51.046;13.796;2022-09-03T10:11:47;4.30;;;1.70;;
62798;SDS011;48842;51.046;13.796;2022-09-03T10:14:23;2.10;;;1.90;;
62798;SDS011;48842;51.046;13.796;2022-09-03T10:17:02;8.67;;;1.93;;
62798;SDS011;48842;51.046;13.796;2022-09-03T10:19:57;3.33;;;1.83;;
62798;SDS011;48842;51.046;13.796;2022-09-03T10:22:51;2.60;;;1.93;;
62798;SDS011;48842;51.046;13.796;2022-09-03T10:25:20;3.13;;;1.80;;
62798;SDS011;48842;51.046;13.796;2022-09-03T10:28:50;8.23;;;2.57;;
62798;SDS011;48842;51.046;13.796;2022-09-03T10:31:29;8.23;;;1.73;;
62798;SDS011;48842;51.046;13.796;2022-09-03T10:34:11;4.67;;;2.07;;
62798;SDS011;48842;51.046;13.796;2022-09-03T10:36:48;5.80;;;2.20;;
62798;SDS011;48842;51.046;13.796;2022-09-03T10:39:33;7.93;;;2.60;;
62798;SDS011;48842;51.046;13.796;2022-09-03T10:45:05;1.97;;;1.87;;
62798;SDS011;48842;51.046;13.796;2022-09-03T10:48:05;5.50;;;1.50;;
62798;SDS011;48842;51.046;13.796;2022-09-03T10:50:30;5.10;;;1.93;;
62798;SDS011;48842;51.046;13.796;2022-09-03T10:58:25;5.60;;;1.53;;
62798;SDS011;48842;51.046;13.796;2022-09-03T11:01:15;4.67;;;1.60;;
62798;SDS011;48842;51.046;13.796;2022-09-03T11:03:55;4.10;;;2.00;;
62798;SDS011;48842;51.046;13.796;2022-09-03T11:06:50;3.63;;;1.87;;
62798;SDS011;48842;51.046;13.796;2022-09-03T11:09:26;10.33;;;2.27;;
62798;SDS011;48842;51.046;13.796;2022-09-03T11:12:10;2.50;;;2.03;;
62798;SDS011;48842;51.046;13.796;2022-09-03T11:14:44;2.10;;;1.90;;
62798;SDS011;48842;51.046;13.796;2022-09-03T11:17:15;3.77;;;1.73;;
62798;SDS011;48842;51.046;13.796;2022-09-03T11:19:49;4.30;;;1.70;;
62798;SDS011;48842;51.046;13.796;2022-09-03T11:22:21;2.27;;;2.10;;
62798;SDS011;48842;51.046;13.796;2022-09-03T11:24:50;9.13;;;2.50;;
62798;SDS011;48842;51.046;13.796;2022-09-03T11:27:29;4.67;;;1.57;;
62798;SDS011;48842;51.046;13.796;2022-09-03T11:32:58;6.43;;;1.90;;
62798;SDS011;48842;51.046;13.796;2022-09-03T11:45:47;1.70;;;1.60;;
62798;SDS011;48842;51.046;13.796;2022-09-03T11:48:18;1.67;;;1.57;;
62798;SDS011;48842;51.046;13.796;2022-09-03T11:51:14;4.57;;;1.83;;
62798;SDS011;48842;51.046;13.796;2022-09-03T11:53:51;3.10;;;2.00;;
62798;SDS011;48842;51.046;13.796;2022-09-03T11:56:18;2.60;;;1.47;;
62798;SDS011;48842;51.046;13.796;2022-09-03T11:58:43;1.57;;;1.47;;
62798;SDS011;48842;51.046;13.796;2022-09-03T12:01:10;3.93;;;2.00;;
62798;SDS011;48842;51.046;13.796;2022-09-03T12:03:53;1.60;;;1.50;;
62798;SDS011;48842;51.046;13.796;2022-09-03T12:12:21;4.73;;;1.70;;
62798;SDS011;48842;51.046;13.796;2022-09-03T12:14:56;1.50;;;1.40;;
62798;SDS011;48842;51.046;13.796;2022-09-03T12:17:30;2.13;;;1.83;;
62798;SDS011;48842;51.046;13.796;2022-09-03T12:20:10;12.77;;;1.60;;
62798;SDS011;48842;51.046;13.796;2022-09-03T12:22:37;3.43;;;1.60;;
62798;SDS011;48842;51.046;13.796;2022-09-03T12:25:07;2.50;;;1.70;;
62798;SDS011;48842;51.046;13.796;2022-09-03T12:27:34;2.80;;;1.47;;
62798;SDS011;48842;51.046;13.796;2022-09-03T12:30:01;3.90;;;1.57;;
62798;SDS011;48842;51.046;13.796;2022-09-03T12:35:08;3.23;;;1.97;;
62798;SDS011;48842;51.046;13.796;2022-09-03T12:37:35;1.57;;;1.47;;
62798;SDS011;48842;51.046;13.796;2022-09-03T12:40:02;5.70;;;1.97;;
62798;SDS011;48842;51.046;13.796;2022-09-03T12:42:28;4.60;;;1.67;;
62798;SDS011;48842;51.046;13.796;2022-09-03T12:44:55;5.47;;;1.73;;
62798;SDS011;48842;51.046;13.796;2022-09-03T12:47:30;2.87;;;1.47;;
62798;SDS011;48842;51.046;13.796;2022-09-03T12:50:07;2.10;;;1.50;;
62798;SDS011;48842;51.046;13.796;2022-09-03T12:52:51;5.57;;;2.07;;
62798;SDS011;48842;51.046;13.796;2022-09-03T12:58:16;7.73;;;1.90;;
62798;SDS011;48842;51.046;13.796;2022-09-03T13:01:07;3.40;;;1.90;;
62798;SDS011;48842;51.046;13.796;2022-09-03T13:06:27;3.33;;;2.00;;
62798;SDS011;48842;51.046;13.796;2022-09-03T13:08:58;9.83;;;2.90;;
62798;SDS011;48842;51.046;13.796;2022-09-03T13:11:32;4.40;;;1.87;;
62798;SDS011;48842;51.046;13.796;2022-09-03T13:14:07;6.40;;;1.70;;
62798;SDS011;48842;51.046;13.796;2022-09-03T13:22:06;2.00;;;1.90;;
62798;SDS011;48842;51.046;13.796;2022-09-03T13:24:48;1.50;;;1.40;;
62798;SDS011;48842;51.046;13.796;2022-09-03T13:27:34;2.67;;;1.80;;
62798;SDS011;48842;51.046;13.796;2022-09-03T13:30:09;2.07;;;1.80;;
62798;SDS011;48842;51.046;13.796;2022-09-03T13:44:02;8.77;;;1.80;;
62798;SDS011;48842;51.046;13.796;2022-09-03T13:46:40;2.40;;;1.20;;
62798;SDS011;48842;51.046;13.796;2022-09-03T13:49:25;1.93;;;1.40;;
62798;SDS011;48842;51.046;13.796;2022-09-03T13:52:19;4.13;;;1.70;;
62798;SDS011;48842;51.046;13.796;2022-09-03T13:54:55;1.63;;;1.53;;
62798;SDS011;48842;51.046;13.796;2022-09-03T13:57:33;4.00;;;1.50;;
62798;SDS011;48842;51.046;13.796;2022-09-03T14:00:09;2.20;;;1.30;;
62798;SDS011;48842;51.046;13.796;2022-09-03T14:02:45;1.53;;;1.40;;
62798;SDS011;48842;51.046;13.796;2022-09-03T14:10:22;2.00;;;1.20;;
62798;SDS011;48842;51.046;13.796;2022-09-03T14:13:05;1.30;;;1.30;;
62798;SDS011;48842;51.046;13.796;2022-09-03T14:15:34;1.60;;;1.50;;
62798;SDS011;48842;51.046;13.796;2022-09-03T14:18:09;2.10;;;1.40;;
62798;SDS011;48842;51.046;13.796;2022-09-03T14:20:43;1.53;;;1.27;;
62798;SDS011;48842;51.046;13.796;2022-09-03T14:26:14;4.73;;;1.30;;
62798;SDS011;48842;51.046;13.796;2022-09-03T14:28:43;2.37;;;1.60;;
62798;SDS011;48842;51.046;13.796;2022-09-03T14:37:11;1.73;;;1.20;;
62798;SDS011;48842;51.046;13.796;2022-09-03T14:39:54;5.27;;;1.50;;
62798;SDS011;48842;51.046;13.796;2022-09-03T14:44:51;4.23;;;1.77;;
62798;SDS011;48842;51.046;13.796;2022-09-03T14:53:21;3.37;;;2.00;;
62798;SDS011;48842;51.046;13.796;2022-09-03T14:56:13;2.30;;;1.70;;
62798;SDS011;48842;51.046;13.796;2022-09-03T14:58:58;1.77;;;1.67;;
62798;SDS011;48842;51.046;13.796;2022-09-03T15:01:46;2.40;;;1.73;;
62798;SDS011;48842;51.046;13.796;2022-09-03T15:04:37;3.90;;;1.80;;
62798;SDS011;48842;51.046;13.796;2022-09-03T15:10:17;1.90;;;1.80;;
62798;SDS011;48842;51.046;13.796;2022-09-03T15:12:52;2.47;;;2.27;;
62798;SDS011;48842;51.046;13.796;2022-09-03T15:18:19;3.50;;;1.77;;
62798;SDS011;48842;51.046;13.796;2022-09-03T15:20:55;2.03;;;1.53;;
62798;SDS011;48842;51.046;13.796;2022-09-03T15:26:54;1.57;;;1.47;;
62798;SDS011;48842;51.046;13.796;2022-09-03T15:29:45;2.30;;;1.93;;
62798;SDS011;48842;51.046;13.796;2022-09-03T15:32:12;3.37;;;2.33;;
62798;SDS011;48842;51.046;13.796;2022-09-03T15:34:52;3.60;;;2.70;;
62798;SDS011;48842;51.046;13.796;2022-09-03T15:37:54;3.13;;;1.93;;
62798;SDS011;48842;51.046;13.796;2022-09-03T15:40:35;2.07;;;1.87;;
62798;SDS011;48842;51.046;13.796;2022-09-03T15:43:07;3.67;;;1.33;;
62798;SDS011;48842;51.046;13.796;2022-09-03T15:48:06;1.87;;;1.67;;
62798;SDS011;48842;51.046;13.796;2022-09-03T15:50:55;3.27;;;1.43;;
62798;SDS011;48842;51.046;13.796;2022-09-03T15:53:35;1.93;;;1.73;;
62798;SDS011;48842;51.046;13.796;2022-09-03T15:56:11;1.70;;;1.60;;
62798;SDS011;48842;51.046;13.796;2022-09-03T16:01:27;4.83;;;1.50;;
62798;SDS011;48842;51.046;13.796;2022-09-03T16:06:49;1.70;;;1.57;;
62798;SDS011;48842;51.046;13.796;2022-09-03T16:12:15;3.63;;;1.50;;
62798;SDS011;48842;51.046;13.796;2022-09-03T16:17:31;7.90;;;2.10;;
62798;SDS011;48842;51.046;13.796;2022-09-03T16:20:05;3.30;;;2.20;;
62798;SDS011;48842;51.046;13.796;2022-09-03T16:25:23;6.13;;;2.20;;
62798;SDS011;48842;51.046;13.796;2022-09-03T16:27:58;2.80;;;2.60;;
62798;SDS011;48842;51.046;13.796;2022-09-03T16:33:59;5.83;;;2.00;;
62798;SDS011;48842;51.046;13.796;2022-09-03T16:36:48;1.77;;;1.67;;
62798;SDS011;48842;51.046;13.796;2022-09-03T16:42:17;2.43;;;1.70;;
62798;SDS011;48842;51.046;13.796;2022-09-03T16:48:16;3.20;;;1.70;;
62798;SDS011;48842;51.046;13.796;2022-09-03T16:51:32;5.87;;;1.93;;
62798;SDS011;48842;51.046;13.796;2022-09-03T17:00:11;4.87;;;2.70;;
62798;SDS011;48842;51.046;13.796;2022-09-03T17:02:55;5.50;;;3.30;;
62798;SDS011;48842;51.046;13.796;2022-09-03T17:09:14;11.93;;;3.50;;
62798;SDS011;48842;51.046;13.796;2022-09-03T17:11:58;8.43;;;3.73;;
62798;SDS011;48842;51.046;13.796;2022-09-03T17:14:45;9.67;;;4.20;;
62798;SDS011;48842;51.046;13.796;2022-09-03T17:20:23;3.67;;;3.37;;
62798;SDS011;48842;51.046;13.796;2022-09-03T17:26:10;7.17;;;4.67;;
62798;SDS011;48842;51.046;13.796;2022-09-03T17:31:40;9.93;;;4.80;;
62798;SDS011;48842;51.046;13.796;2022-09-03T17:37:13;5.40;;;3.63;;
62798;SDS011;48842;51.046;13.796;2022-09-03T17:40:15;7.83;;;3.57;;
62798;SDS011;48842;51.046;13.796;2022-09-03T17:42:55;6.47;;;3.10;;
62798;SDS011;48842;51.046;13.796;2022-09-03T17:51:07;4.50;;;3.17;;
62798;SDS011;48842;51.046;13.796;2022-09-03T17:54:03;8.00;;;3.17;;
62798;SDS011;48842;51.046;13.796;2022-09-03T17:56:39;4.53;;;2.97;;
62798;SDS011;48842;51.046;13.796;2022-09-03T17:59:41;6.40;;;3.07;;
62798;SDS011;48842;51.046;13.796;2022-09-03T18:02:27;6.47;;;3.40;;
62798;SDS011;48842;51.046;13.796;2022-09-03T18:11:05;7.30;;;3.93;;
62798;SDS011;48842;51.046;13.796;2022-09-03T18:16:28;5.43;;;4.90;;
62798;SDS011;48842;51.046;13.796;2022-09-03T18:18:57;5.27;;;4.77;;
62798;SDS011;48842;51.046;13.796;2022-09-03T18:21:28;8.73;;;4.97;;